KSJN/SJN METAR and TAF weather

Enter ICAO airport designator
Station Type Date Time Source
KSJN METAR 2022/01/29 09:54 UTC NOAA

KSJN 290954Z AUTO 21003KT 10SM CLR M09/M15 A3037 RMK AO2 SLP285 T10941150


Station Type Date Time Source
KSJN Decoded METAR 2022/01/29 09:54 UTC NOAA

ST JOHNS INDUSTRIAL AIRPRK, AZ, United States (KSJN) 34-31N 109-23W 1745M
Jan 29, 2022 - 04:54 AM EST / 2022.01.29 0954 UTC
Wind: from the SSW (210 degrees) at 3 MPH (3 KT):0
Visibility: 10 mile(s):0
Sky conditions: clear
Temperature: 15.1 F (-9.4 C)
Dew Point: 5.0 F (-15.0 C)
Relative Humidity: 63%
Pressure (altimeter): 30.37 in. Hg (1028 hPa)
ob: KSJN 290954Z AUTO 21003KT 10SM CLR M09/M15 A3037 RMK AO2 SLP285 T10941150
cycle: 10

Station Type Date Time Source
KSJN TAF UTC NOAA

Error!

Example: see airport list